Time;durP1;ratioP1;P1;durP2;ratioP2;P2;SDS_P1;SDS_P2;PMS_P1;PMS_P2;Temp;Humidity;BMP_temperature;BMP_pressure;BME280_temperature;BME280_humidity;BME280_pressure;Samples;Min_cycle;Max_cycle;Signal;HPM_P1;HPM_P2
2022/09/10 00:00:42;;;;;;;;;;;17.60;84.50;;;;;;5039456;28;20019;-75
2022/09/10 00:03:09;;;;;;;;;;;17.60;84.50;;;;;;5045599;28;19932;-76
2022/09/10 00:05:38;;;;;;;;;;;17.60;84.40;;;;;;5040988;28;19929;-76
2022/09/10 00:08:05;;;;;;;;;;;17.60;84.50;;;;;;5041035;28;19940;-76
2022/09/10 00:10:37;;;;;;;;;;;17.60;84.50;;;;;;5040683;28;19928;-76
2022/09/10 00:13:03;;;;;;;;;;;17.60;84.60;;;;;;5044318;28;19936;-76
2022/09/10 00:15:30;;;;;;;;;;;17.60;84.70;;;;;;5043441;28;19943;-76
2022/09/10 00:17:56;;;;;;;;;;;17.60;84.70;;;;;;5039278;28;19929;-76
2022/09/10 00:20:23;;;;;;;;;;;17.50;84.80;;;;;;5042943;28;20327;-75
2022/09/10 00:22:49;;;;;;;;;;;17.50;84.80;;;;;;5044683;28;19928;-76
2022/09/10 00:25:16;;;;;;;;;;;17.50;84.90;;;;;;5039884;28;19998;-76
2022/09/10 00:27:44;;;;;;;;;;;17.50;85.00;;;;;;5045375;28;19936;-76
2022/09/10 00:30:11;;;;;;;;;;;17.50;85.00;;;;;;5039007;28;19929;-76
2022/09/10 00:32:38;;;;;;;;;;;17.50;85.00;;;;;;5041393;28;20447;-76
2022/09/10 00:35:05;;;;;;;;;;;17.50;85.10;;;;;;5040800;28;19959;-76
2022/09/10 00:37:32;;;;;;;;;;;17.50;85.10;;;;;;5043052;28;19936;-75
2022/09/10 00:39:59;;;;;;;;;;;17.50;85.10;;;;;;5040952;28;20304;-76
2022/09/10 00:42:25;;;;;;;;;;;17.40;84.90;;;;;;5044428;28;20282;-76
2022/09/10 00:44:58;;;;;;;;;;;17.40;84.80;;;;;;5042020;28;19929;-76
2022/09/10 00:47:26;;;;;;;;;;;17.40;84.80;;;;;;5040913;28;19940;-76
2022/09/10 00:49:54;;;;;;;;;;;17.40;84.90;;;;;;5039535;28;20593;-76
2022/09/10 00:52:21;;;;;;;;;;;17.40;84.90;;;;;;5041703;28;20594;-76
2022/09/10 00:54:48;;;;;;;;;;;17.40;84.80;;;;;;5039331;28;19937;-76
2022/09/10 00:57:17;;;;;;;;;;;17.40;84.90;;;;;;5037615;28;19933;-76
2022/09/10 00:59:45;;;;;;;;;;;17.40;84.90;;;;;;5035935;28;19959;-76
2022/09/10 01:02:13;;;;;;;;;;;17.40;84.70;;;;;;5039440;28;19932;-77
2022/09/10 01:04:40;;;;;;;;;;;17.30;84.60;;;;;;5042098;28;19980;-76
2022/09/10 01:07:08;;;;;;;;;;;17.30;84.60;;;;;;5041138;28;19929;-75
2022/09/10 01:09:35;;;;;;;;;;;17.30;84.70;;;;;;5041404;28;19936;-77
2022/09/10 01:12:08;;;;;;;;;;;17.30;84.70;;;;;;5043290;28;20441;-76
2022/09/10 01:14:44;;;;;;;;;;;17.30;84.90;;;;;;5041303;28;19935;-76
2022/09/10 01:17:13;;;;;;;;;;;17.20;84.80;;;;;;5041184;28;19952;-76
2022/09/10 01:20:14;;;;;;;;;;;17.30;84.70;;;;;;5039769;28;19932;-77
2022/09/10 01:22:50;;;;;;;;;;;17.30;84.70;;;;;;5040862;28;19964;-76
2022/09/10 01:25:22;;;;;;;;;;;17.20;84.60;;;;;;5040291;28;19940;-77
2022/09/10 01:27:50;;;;;;;;;;;17.20;84.60;;;;;;5041249;28;20012;-76
2022/09/10 01:30:19;;;;;;;;;;;17.20;84.70;;;;;;5038390;28;19936;-77
2022/09/10 01:33:01;;;;;;;;;;;17.20;84.70;;;;;;5041668;28;19978;-77
2022/09/10 01:35:29;;;;;;;;;;;17.20;84.80;;;;;;5039283;28;19935;-76
2022/09/10 01:37:59;;;;;;;;;;;17.20;84.90;;;;;;5041361;28;20407;-76
2022/09/10 01:40:28;;;;;;;;;;;17.20;84.90;;;;;;5039305;28;20459;-76
2022/09/10 01:43:00;;;;;;;;;;;17.20;84.90;;;;;;5041511;28;19933;-76
2022/09/10 01:45:28;;;;;;;;;;;17.20;84.90;;;;;;5039798;28;20011;-77
2022/09/10 01:48:12;;;;;;;;;;;17.20;85.00;;;;;;5037939;28;19929;-76
2022/09/10 01:50:43;;;;;;;;;;;17.10;85.00;;;;;;5041527;28;19933;-77
2022/09/10 01:53:18;;;;;;;;;;;17.20;85.20;;;;;;5040661;28;19933;-76
2022/09/10 01:55:49;;;;;;;;;;;17.10;85.10;;;;;;5039273;28;19929;-77
2022/09/10 01:58:20;;;;;;;;;;;17.10;85.20;;;;;;5039831;28;19924;-77
2022/09/10 02:00:50;;;;;;;;;;;17.10;85.30;;;;;;5037413;28;19928;-77
2022/09/10 02:03:18;;;;;;;;;;;17.10;85.30;;;;;;5041104;28;19936;-77
2022/09/10 02:05:47;;;;;;;;;;;17.10;85.40;;;;;;5040253;28;19930;-77
2022/09/10 02:08:15;;;;;;;;;;;17.10;85.40;;;;;;5040042;28;19929;-76
2022/09/10 02:10:49;;;;;;;;;;;17.10;85.50;;;;;;5038539;28;19959;-77
2022/09/10 02:13:16;;;;;;;;;;;17.10;85.60;;;;;;5039715;28;19924;-76
2022/09/10 02:15:44;;;;;;;;;;;17.10;85.50;;;;;;5040882;28;19936;-75
2022/09/10 02:18:11;;;;;;;;;;;17.10;85.50;;;;;;5040513;28;19951;-76
2022/09/10 02:20:39;;;;;;;;;;;17.10;85.60;;;;;;5040796;28;19966;-77
2022/09/10 02:23:06;;;;;;;;;;;17.00;85.60;;;;;;5041362;28;19939;-76
2022/09/10 02:25:33;;;;;;;;;;;17.00;85.70;;;;;;5041627;28;19939;-77
2022/09/10 02:28:00;;;;;;;;;;;17.00;85.60;;;;;;5042344;28;19939;-76
2022/09/10 02:30:26;;;;;;;;;;;17.00;85.70;;;;;;5042187;28;21191;-76
2022/09/10 02:32:54;;;;;;;;;;;17.00;85.70;;;;;;5042586;28;20443;-77
2022/09/10 02:35:21;;;;;;;;;;;17.00;85.80;;;;;;5043030;28;19929;-77
2022/09/10 02:37:48;;;;;;;;;;;17.00;85.80;;;;;;5043659;28;19927;-76
2022/09/10 02:40:16;;;;;;;;;;;17.00;85.80;;;;;;5042660;28;20762;-76
2022/09/10 02:42:45;;;;;;;;;;;17.00;85.90;;;;;;5047364;28;19941;-75
2022/09/10 02:45:12;;;;;;;;;;;17.00;86.00;;;;;;5044356;28;19931;-77
2022/09/10 02:47:39;;;;;;;;;;;17.00;86.00;;;;;;5043248;28;19932;-77
2022/09/10 02:50:08;;;;;;;;;;;17.00;86.10;;;;;;5043882;28;20455;-76
2022/09/10 02:52:35;;;;;;;;;;;17.00;86.80;;;;;;5044989;28;19929;-77
2022/09/10 02:55:02;;;;;;;;;;;16.90;86.10;;;;;;5041657;28;19936;-76
2022/09/10 02:57:29;;;;;;;;;;;16.90;86.20;;;;;;5042954;28;20011;-77
2022/09/10 02:59:56;;;;;;;;;;;16.90;86.10;;;;;;5044594;28;19956;-76
2022/09/10 03:02:23;;;;;;;;;;;16.90;86.20;;;;;;5044355;28;19943;-76
2022/09/10 03:04:50;;;;;;;;;;;16.90;86.10;;;;;;5044897;28;19936;-76
2022/09/10 03:07:19;;;;;;;;;;;16.90;86.20;;;;;;5043796;28;19936;-77
2022/09/10 03:09:45;;;;;;;;;;;16.90;86.20;;;;;;5042819;28;19929;-75
2022/09/10 03:12:14;;;;;;;;;;;16.90;86.20;;;;;;5042210;28;19936;-76
2022/09/10 03:14:41;;;;;;;;;;;16.90;86.10;;;;;;5045456;28;19940;-76
2022/09/10 03:17:08;;;;;;;;;;;16.90;86.20;;;;;;5044284;28;19932;-77
2022/09/10 03:19:34;;;;;;;;;;;16.90;86.20;;;;;;5043273;28;20007;-77
2022/09/10 03:22:01;;;;;;;;;;;16.90;86.30;;;;;;5049336;28;20331;-76
2022/09/10 03:24:29;;;;;;;;;;;16.90;86.30;;;;;;5039572;28;19936;-76
2022/09/10 03:26:55;;;;;;;;;;;16.90;86.30;;;;;;5042803;28;19944;-77
2022/09/10 03:29:23;;;;;;;;;;;16.90;86.30;;;;;;5042653;28;19932;-76
2022/09/10 03:31:50;;;;;;;;;;;16.80;86.30;;;;;;5043874;28;19936;-76
2022/09/10 03:34:16;;;;;;;;;;;16.80;86.30;;;;;;5040881;28;19943;-76
2022/09/10 03:36:46;;;;;;;;;;;16.90;86.40;;;;;;5042771;28;20672;-76
2022/09/10 03:39:12;;;;;;;;;;;16.90;86.40;;;;;;5041996;28;19974;-75
2022/09/10 03:41:40;;;;;;;;;;;16.80;86.30;;;;;;5042997;28;19960;-76
2022/09/10 03:44:07;;;;;;;;;;;16.80;86.40;;;;;;5044665;28;19929;-77
2022/09/10 03:46:33;;;;;;;;;;;16.80;86.50;;;;;;5041878;28;19929;-75
2022/09/10 03:49:01;;;;;;;;;;;16.80;86.50;;;;;;5040484;28;20426;-75
2022/09/10 03:51:28;;;;;;;;;;;16.90;86.60;;;;;;5042055;28;20002;-76
2022/09/10 03:53:54;;;;;;;;;;;16.80;86.60;;;;;;5042349;28;19933;-76
2022/09/10 03:56:21;;;;;;;;;;;16.80;86.60;;;;;;5039880;28;19936;-76
2022/09/10 03:58:49;;;;;;;;;;;16.80;86.60;;;;;;5042129;28;20043;-76
2022/09/10 04:01:15;;;;;;;;;;;16.80;86.70;;;;;;5040005;28;19932;-77
2022/09/10 04:03:42;;;;;;;;;;;16.80;86.60;;;;;;5043336;28;19956;-76
2022/09/10 04:06:09;;;;;;;;;;;16.80;86.60;;;;;;5041922;28;19928;-77
2022/09/10 04:08:36;;;;;;;;;;;16.80;86.70;;;;;;5041015;28;19929;-77
2022/09/10 04:11:03;;;;;;;;;;;16.70;86.60;;;;;;5039627;28;20058;-76
2022/09/10 04:13:30;;;;;;;;;;;16.70;86.60;;;;;;5042704;28;19929;-77
2022/09/10 04:15:59;;;;;;;;;;;16.70;86.70;;;;;;5041813;28;19964;-76
2022/09/10 04:18:26;;;;;;;;;;;16.70;86.70;;;;;;5040092;28;19925;-76
2022/09/10 04:20:52;;;;;;;;;;;16.70;86.70;;;;;;5042217;28;19960;-77
2022/09/10 04:23:19;;;;;;;;;;;16.70;86.70;;;;;;5041821;28;19932;-76
2022/09/10 04:25:46;;;;;;;;;;;16.70;86.70;;;;;;5040781;28;20075;-76
2022/09/10 04:28:13;;;;;;;;;;;16.70;86.80;;;;;;5041949;28;20043;-77
2022/09/10 04:30:40;;;;;;;;;;;16.70;86.80;;;;;;5040501;28;20407;-76
2022/09/10 04:33:07;;;;;;;;;;;16.70;86.80;;;;;;5041493;28;19929;-77
2022/09/10 04:35:34;;;;;;;;;;;16.70;86.90;;;;;;5039976;28;19939;-77
2022/09/10 04:38:01;;;;;;;;;;;16.70;86.90;;;;;;5042843;28;19929;-76
2022/09/10 04:40:27;;;;;;;;;;;16.70;86.90;;;;;;5039614;28;20340;-76
2022/09/10 04:42:54;;;;;;;;;;;16.70;86.90;;;;;;5041059;28;19932;-76
2022/09/10 04:45:20;;;;;;;;;;;16.70;87.00;;;;;;5040051;28;19932;-77
2022/09/10 04:47:48;;;;;;;;;;;16.70;87.00;;;;;;5041069;28;19941;-76
2022/09/10 04:50:16;;;;;;;;;;;16.70;86.90;;;;;;5037240;28;19925;-77
2022/09/10 04:52:43;;;;;;;;;;;16.70;86.90;;;;;;5042523;28;19929;-76
2022/09/10 04:55:10;;;;;;;;;;;16.70;87.00;;;;;;5041411;28;20003;-77
2022/09/10 04:57:37;;;;;;;;;;;16.70;87.00;;;;;;5044574;28;19932;-77
2022/09/10 05:00:06;;;;;;;;;;;16.70;87.00;;;;;;5041293;28;19964;-76
2022/09/10 05:02:33;;;;;;;;;;;16.60;87.00;;;;;;5041112;28;19968;-76
2022/09/10 05:04:59;;;;;;;;;;;16.60;87.00;;;;;;5040010;28;19951;-76
2022/09/10 05:07:27;;;;;;;;;;;16.70;87.10;;;;;;5039573;28;19999;-76
2022/09/10 05:09:54;;;;;;;;;;;16.60;87.00;;;;;;5039689;28;20010;-76
2022/09/10 05:12:21;;;;;;;;;;;16.60;87.00;;;;;;5039704;28;20359;-76
2022/09/10 05:14:48;;;;;;;;;;;16.60;87.10;;;;;;5042933;28;19970;-76
2022/09/10 05:17:15;;;;;;;;;;;16.60;87.10;;;;;;5039671;28;20058;-77
2022/09/10 05:19:41;;;;;;;;;;;16.60;87.10;;;;;;5042741;28;20043;-77
2022/09/10 05:22:08;;;;;;;;;;;16.60;87.10;;;;;;5043459;28;19928;-76
2022/09/10 05:24:36;;;;;;;;;;;16.60;87.10;;;;;;5038147;28;20308;-76
2022/09/10 05:27:03;;;;;;;;;;;16.60;87.10;;;;;;5044414;28;20499;-76
2022/09/10 05:29:29;;;;;;;;;;;16.60;87.10;;;;;;5041748;28;19936;-76
2022/09/10 05:31:56;;;;;;;;;;;16.60;87.10;;;;;;5040482;28;19984;-76
2022/09/10 05:34:23;;;;;;;;;;;16.60;87.10;;;;;;5038982;28;19930;-76
2022/09/10 05:36:50;;;;;;;;;;;16.60;87.20;;;;;;5041016;28;19945;-76
2022/09/10 05:39:17;;;;;;;;;;;16.60;87.20;;;;;;5039588;28;19940;-77
2022/09/10 05:41:45;;;;;;;;;;;16.60;87.20;;;;;;5040451;28;19929;-77
2022/09/10 05:44:11;;;;;;;;;;;16.60;87.30;;;;;;5040412;28;19944;-77
2022/09/10 05:46:39;;;;;;;;;;;16.60;87.30;;;;;;5042099;28;20002;-76
2022/09/10 05:49:06;;;;;;;;;;;16.60;87.30;;;;;;5039577;28;19933;-76
2022/09/10 05:51:32;;;;;;;;;;;16.60;87.40;;;;;;5038655;28;21055;-76
2022/09/10 05:53:59;;;;;;;;;;;16.60;88.10;;;;;;5040168;28;19998;-76
2022/09/10 05:56:25;;;;;;;;;;;16.60;87.40;;;;;;5039034;28;19937;-75
2022/09/10 05:58:53;;;;;;;;;;;16.60;87.50;;;;;;5040025;28;19929;-76
2022/09/10 06:01:20;;;;;;;;;;;16.50;87.40;;;;;;5041142;28;19944;-76
2022/09/10 06:03:47;;;;;;;;;;;16.60;87.50;;;;;;5043738;28;19937;-76
2022/09/10 06:06:14;;;;;;;;;;;16.60;87.50;;;;;;5044220;28;19929;-76
2022/09/10 06:08:40;;;;;;;;;;;16.60;87.50;;;;;;5040544;28;19940;-77
2022/09/10 06:11:07;;;;;;;;;;;16.60;87.50;;;;;;5043576;28;19936;-77
2022/09/10 06:13:34;;;;;;;;;;;16.60;88.20;;;;;;5045500;28;19990;-77
2022/09/10 06:16:03;;;;;;;;;;;16.60;87.50;;;;;;5044468;28;19936;-76
2022/09/10 06:18:30;;;;;;;;;;;16.60;87.60;;;;;;5045816;28;19952;-76
2022/09/10 06:21:04;;;;;;;;;;;16.60;87.50;;;;;;5046138;28;19929;-77
2022/09/10 06:23:30;;;;;;;;;;;16.60;87.70;;;;;;5043669;28;19933;-76
2022/09/10 06:26:02;;;;;;;;;;;16.60;87.70;;;;;;5038355;28;20018;-76
2022/09/10 06:28:29;;;;;;;;;;;16.60;87.70;;;;;;5039466;28;20389;-75
2022/09/10 06:30:55;;;;;;;;;;;16.60;87.60;;;;;;5030760;28;19980;-75
2022/09/10 06:33:23;;;;;;;;;;;16.60;87.60;;;;;;5034715;28;19956;-76
2022/09/10 06:35:52;;;;;;;;;;;16.60;87.60;;;;;;5031511;28;19932;-76
2022/09/10 06:38:18;;;;;;;;;;;16.60;87.70;;;;;;5035635;28;19986;-76
2022/09/10 06:40:53;;;;;;;;;;;16.60;87.70;;;;;;5035096;28;19933;-75
2022/09/10 06:43:20;;;;;;;;;;;16.60;87.60;;;;;;5037243;28;19948;-76
2022/09/10 06:45:48;;;;;;;;;;;16.60;87.70;;;;;;5032804;28;20074;-77
2022/09/10 06:48:17;;;;;;;;;;;16.50;87.60;;;;;;5037910;28;19925;-77
2022/09/10 06:50:51;;;;;;;;;;;16.60;87.70;;;;;;5035485;28;19932;-76
2022/09/10 06:53:17;;;;;;;;;;;16.60;87.70;;;;;;5042763;28;19939;-76
2022/09/10 06:55:44;;;;;;;;;;;16.50;87.60;;;;;;5040225;28;19965;-76
2022/09/10 06:58:10;;;;;;;;;;;16.60;87.70;;;;;;5043676;28;20035;-76
2022/09/10 07:00:38;;;;;;;;;;;16.60;87.70;;;;;;5040667;28;19994;-76
2022/09/10 07:03:05;;;;;;;;;;;16.60;87.70;;;;;;5041866;28;19940;-75
2022/09/10 07:05:32;;;;;;;;;;;16.60;87.70;;;;;;5041681;28;19924;-76
2022/09/10 07:08:00;;;;;;;;;;;16.60;87.70;;;;;;5043048;28;19994;-76
2022/09/10 07:10:27;;;;;;;;;;;16.60;87.80;;;;;;5041194;28;19933;-76
2022/09/10 07:12:53;;;;;;;;;;;16.60;87.70;;;;;;5042696;28;19939;-75
2022/09/10 07:15:20;;;;;;;;;;;16.60;87.80;;;;;;5040662;28;19928;-76
2022/09/10 07:17:46;;;;;;;;;;;16.60;87.80;;;;;;5040418;28;20644;-76
2022/09/10 07:20:13;;;;;;;;;;;16.60;87.70;;;;;;5039946;28;20677;-76
2022/09/10 07:22:41;;;;;;;;;;;16.60;87.70;;;;;;5042296;28;19933;-78
2022/09/10 07:25:09;;;;;;;;;;;16.60;87.70;;;;;;5039850;28;19933;-78
2022/09/10 07:27:36;;;;;;;;;;;16.60;87.70;;;;;;5041941;28;19936;-77
2022/09/10 07:30:03;;;;;;;;;;;16.60;87.60;;;;;;5038738;28;19929;-77
2022/09/10 07:32:32;;;;;;;;;;;16.60;87.60;;;;;;5042190;28;19936;-77
2022/09/10 07:34:59;;;;;;;;;;;16.60;87.60;;;;;;5040498;28;19928;-76
2022/09/10 07:37:26;;;;;;;;;;;16.60;87.60;;;;;;5041972;28;19933;-77
2022/09/10 07:39:52;;;;;;;;;;;16.60;87.60;;;;;;5039127;28;19936;-76
2022/09/10 07:42:20;;;;;;;;;;;16.70;87.70;;;;;;5040553;28;19929;-76
2022/09/10 07:44:47;;;;;;;;;;;16.70;87.60;;;;;;5041184;28;20015;-76
2022/09/10 07:47:14;;;;;;;;;;;16.70;87.60;;;;;;5040588;28;20063;-76
2022/09/10 07:49:40;;;;;;;;;;;16.60;87.60;;;;;;5037377;28;19944;-76
2022/09/10 07:52:07;;;;;;;;;;;16.70;87.90;;;;;;5041778;28;19983;-75
2022/09/10 07:54:33;;;;;;;;;;;16.80;87.70;;;;;;5038560;28;19929;-74
2022/09/10 07:57:00;;;;;;;;;;;16.80;87.60;;;;;;5029837;28;20320;-75
2022/09/10 07:59:28;;;;;;;;;;;16.80;87.60;;;;;;5031964;28;19940;-76
2022/09/10 08:01:54;;;;;;;;;;;16.80;87.50;;;;;;5045295;28;19933;-76
2022/09/10 08:04:22;;;;;;;;;;;16.80;87.40;;;;;;5044121;28;19937;-76
2022/09/10 08:06:50;;;;;;;;;;;16.80;87.40;;;;;;5043166;28;19932;-77
2022/09/10 08:09:18;;;;;;;;;;;16.80;87.30;;;;;;5041519;28;19928;-76
2022/09/10 08:11:44;;;;;;;;;;;16.80;87.20;;;;;;5044908;28;20005;-76
2022/09/10 08:14:12;;;;;;;;;;;16.80;87.00;;;;;;5042194;28;20423;-76
2022/09/10 08:16:40;;;;;;;;;;;16.90;87.10;;;;;;5045802;28;19929;-76
2022/09/10 08:19:07;;;;;;;;;;;16.90;86.90;;;;;;5043052;28;19929;-75
2022/09/10 08:21:35;;;;;;;;;;;16.90;86.80;;;;;;5039761;28;19933;-76
2022/09/10 08:24:01;;;;;;;;;;;16.90;86.80;;;;;;5032713;28;20412;-76
2022/09/10 08:26:28;;;;;;;;;;;16.90;86.70;;;;;;5032231;28;20351;-75
2022/09/10 08:28:56;;;;;;;;;;;16.90;86.60;;;;;;5041525;28;19984;-76
2022/09/10 08:31:23;;;;;;;;;;;16.90;86.50;;;;;;5031188;28;19957;-76
2022/09/10 08:33:52;;;;;;;;;;;17.00;86.50;;;;;;5028355;28;19925;-76
2022/09/10 08:36:26;;;;;;;;;;;17.00;86.30;;;;;;5026454;28;20491;-75
2022/09/10 08:38:53;;;;;;;;;;;17.00;86.30;;;;;;5032028;28;20648;-75
2022/09/10 08:41:26;;;;;;;;;;;17.00;86.20;;;;;;5033152;28;20015;-75
2022/09/10 08:43:55;;;;;;;;;;;17.00;86.10;;;;;;5038002;28;20023;-75
2022/09/10 08:46:23;;;;;;;;;;;17.00;86.00;;;;;;5037007;28;19929;-75
2022/09/10 08:48:54;;;;;;;;;;;17.10;85.80;;;;;;5036295;28;19976;-74
2022/09/10 08:51:26;;;;;;;;;;;17.10;85.70;;;;;;5032540;28;19933;-74
2022/09/10 08:53:54;;;;;;;;;;;17.10;85.60;;;;;;5032629;28;19929;-76
2022/09/10 08:56:21;;;;;;;;;;;17.20;85.40;;;;;;5036029;28;19940;-76
2022/09/10 08:58:50;;;;;;;;;;;17.10;85.30;;;;;;5041304;28;19929;-77
2022/09/10 09:01:21;;;;;;;;;;;17.20;85.10;;;;;;5040942;28;19940;-76
2022/09/10 09:03:47;;;;;;;;;;;17.20;85.00;;;;;;5043118;28;19929;-75
2022/09/10 09:06:24;;;;;;;;;;;17.30;85.00;;;;;;5043336;28;19932;-77
2022/09/10 09:08:51;;;;;;;;;;;17.30;84.90;;;;;;5043349;28;19959;-76
2022/09/10 09:11:24;;;;;;;;;;;17.30;84.70;;;;;;5041905;28;19935;-77
2022/09/10 09:13:56;;;;;;;;;;;17.30;84.50;;;;;;5044000;28;19940;-76
2022/09/10 09:16:31;;;;;;;;;;;17.40;84.40;;;;;;5042682;28;20461;-76
2022/09/10 09:19:04;;;;;;;;;;;17.40;84.20;;;;;;5041509;28;19928;-76
2022/09/10 09:21:38;;;;;;;;;;;17.40;84.20;;;;;;5041314;28;20396;-75
2022/09/10 09:24:07;;;;;;;;;;;17.40;84.20;;;;;;5040868;28;19928;-76
2022/09/10 09:26:35;;;;;;;;;;;17.40;84.00;;;;;;5041430;28;19935;-77
2022/09/10 09:29:04;;;;;;;;;;;17.50;83.90;;;;;;5044460;28;19929;-76
2022/09/10 09:31:31;;;;;;;;;;;17.50;84.00;;;;;;5042037;28;19932;-76
2022/09/10 09:34:01;;;;;;;;;;;17.60;83.80;;;;;;5042159;28;19928;-76
2022/09/10 09:36:30;;;;;;;;;;;17.60;83.50;;;;;;5043747;28;19940;-77
2022/09/10 09:38:58;;;;;;;;;;;17.60;83.30;;;;;;5045174;28;20385;-76
2022/09/10 09:41:29;;;;;;;;;;;17.70;83.20;;;;;;5041146;28;19967;-78
2022/09/10 09:43:57;;;;;;;;;;;17.70;83.20;;;;;;5046206;28;19929;-76
2022/09/10 09:46:24;;;;;;;;;;;17.70;82.80;;;;;;5046225;28;19939;-76
2022/09/10 09:48:54;;;;;;;;;;;17.70;82.50;;;;;;5041267;28;19933;-77
2022/09/10 09:51:21;;;;;;;;;;;17.70;82.30;;;;;;5037200;28;20471;-76
2022/09/10 09:53:49;;;;;;;;;;;17.70;82.40;;;;;;5044023;28;19975;-77
2022/09/10 09:56:21;;;;;;;;;;;17.80;82.50;;;;;;5035903;28;19932;-77
2022/09/10 09:58:48;;;;;;;;;;;17.80;82.70;;;;;;5041020;28;19928;-76
2022/09/10 10:01:16;;;;;;;;;;;17.80;82.60;;;;;;5043439;28;20360;-76
2022/09/10 10:03:47;;;;;;;;;;;17.90;82.50;;;;;;5043051;28;20369;-77
2022/09/10 10:06:14;;;;;;;;;;;17.90;82.40;;;;;;5043578;28;20459;-76
2022/09/10 10:08:42;;;;;;;;;;;17.90;82.30;;;;;;5043504;28;19940;-77
2022/09/10 10:11:11;;;;;;;;;;;18.00;82.00;;;;;;5038926;28;20013;-76
2022/09/10 10:13:40;;;;;;;;;;;18.00;82.00;;;;;;5039291;28;20545;-75
2022/09/10 10:16:14;;;;;;;;;;;18.10;81.60;;;;;;5043146;28;20565;-77
2022/09/10 10:18:41;;;;;;;;;;;18.10;78.80;;;;;;5042792;28;19932;-77
2022/09/10 10:21:12;;;;;;;;;;;18.20;79.00;;;;;;5042006;28;19935;-76
2022/09/10 10:23:39;;;;;;;;;;;18.20;79.40;;;;;;5041404;28;19933;-76
2022/09/10 10:26:16;;;;;;;;;;;18.20;79.90;;;;;;5040873;28;19929;-76
2022/09/10 10:28:46;;;;;;;;;;;18.30;80.70;;;;;;5042063;28;19933;-76
2022/09/10 10:31:13;;;;;;;;;;;18.30;80.70;;;;;;5041481;28;19929;-77
2022/09/10 10:33:45;;;;;;;;;;;18.30;80.40;;;;;;5041372;28;19928;-76
2022/09/10 10:36:14;;;;;;;;;;;18.40;80.40;;;;;;5041593;28;20423;-76
2022/09/10 10:38:42;;;;;;;;;;;18.40;80.80;;;;;;5044715;28;20423;-77
2022/09/10 10:41:28;;;;;;;;;;;18.30;80.70;;;;;;5040431;28;19935;-76
2022/09/10 10:44:01;;;;;;;;;;;18.40;80.50;;;;;;5042508;28;19935;-76
2022/09/10 10:46:33;;;;;;;;;;;18.40;80.40;;;;;;5040062;28;19929;-76
2022/09/10 10:49:05;;;;;;;;;;;18.40;80.40;;;;;;5041322;28;19940;-76
2022/09/10 10:51:39;;;;;;;;;;;18.40;80.50;;;;;;5046267;28;20376;-76
2022/09/10 10:54:22;;;;;;;;;;;18.50;80.70;;;;;;5042737;28;19952;-76
2022/09/10 10:56:55;;;;;;;;;;;18.50;81.00;;;;;;5044516;28;20311;-76
2022/09/10 10:59:33;;;;;;;;;;;18.50;81.10;;;;;;5042719;28;19929;-77
2022/09/10 11:02:02;;;;;;;;;;;18.50;80.90;;;;;;5044312;28;19937;-76
2022/09/10 11:04:31;;;;;;;;;;;18.50;80.70;;;;;;5040730;28;19979;-78
2022/09/10 11:07:00;;;;;;;;;;;18.50;80.60;;;;;;5044537;28;19935;-77
2022/09/10 11:09:30;;;;;;;;;;;18.50;80.30;;;;;;5041962;28;19936;-76
2022/09/10 11:11:58;;;;;;;;;;;18.60;80.40;;;;;;5043619;28;20046;-76
2022/09/10 11:14:28;;;;;;;;;;;18.60;81.00;;;;;;5045382;28;20000;-76
2022/09/10 11:16:58;;;;;;;;;;;18.60;81.20;;;;;;5042172;28;19939;-76
2022/09/10 11:19:27;;;;;;;;;;;18.70;80.60;;;;;;5043862;28;19931;-77
2022/09/10 11:21:54;;;;;;;;;;;18.70;80.00;;;;;;5043266;28;20046;-76
2022/09/10 11:24:23;;;;;;;;;;;18.80;79.80;;;;;;5042724;28;20038;-77
2022/09/10 11:26:52;;;;;;;;;;;18.80;79.80;;;;;;5043731;28;19963;-77
2022/09/10 11:29:24;;;;;;;;;;;18.80;79.10;;;;;;5043131;28;20121;-77
2022/09/10 11:31:53;;;;;;;;;;;18.80;79.10;;;;;;5041344;28;20784;-76
2022/09/10 11:34:26;;;;;;;;;;;18.80;79.10;;;;;;5036010;28;20198;-76
2022/09/10 11:36:56;;;;;;;;;;;18.80;78.70;;;;;;5046533;28;20361;-75
2022/09/10 11:39:29;;;;;;;;;;;18.80;78.40;;;;;;5045072;28;20043;-76
2022/09/10 11:41:58;;;;;;;;;;;18.80;78.50;;;;;;5044660;28;19932;-76
2022/09/10 11:44:33;;;;;;;;;;;18.90;78.90;;;;;;5048248;28;20404;-75
2022/09/10 11:47:01;;;;;;;;;;;18.90;79.00;;;;;;5047309;28;19929;-76
2022/09/10 11:49:36;;;;;;;;;;;18.90;78.20;;;;;;5047948;28;19929;-75
2022/09/10 11:52:02;;;;;;;;;;;18.90;78.00;;;;;;5041911;28;19974;-76
2022/09/10 11:54:30;;;;;;;;;;;19.00;77.80;;;;;;5040460;28;19929;-76
2022/09/10 11:57:00;;;;;;;;;;;19.00;77.50;;;;;;5042117;28;20397;-75
2022/09/10 11:59:44;;;;;;;;;;;19.10;77.30;;;;;;5043332;28;19941;-76
2022/09/10 12:02:20;;;;;;;;;;;19.00;77.40;;;;;;5041676;28;20419;-75
2022/09/10 12:04:55;;;;;;;;;;;19.10;77.40;;;;;;5042921;28;19932;-75
2022/09/10 12:07:32;;;;;;;;;;;19.10;77.90;;;;;;5044041;28;19944;-76
2022/09/10 12:10:07;;;;;;;;;;;19.10;78.10;;;;;;5042073;28;19935;-76
2022/09/10 12:12:37;;;;;;;;;;;19.10;77.20;;;;;;5037580;28;19928;-76
2022/09/10 12:15:07;;;;;;;;;;;19.10;77.20;;;;;;5041673;28;19936;-75
2022/09/10 12:17:36;;;;;;;;;;;19.20;76.60;;;;;;5041095;28;19933;-75
2022/09/10 12:20:05;;;;;;;;;;;19.20;76.40;;;;;;5042952;28;19943;-75
2022/09/10 12:22:35;;;;;;;;;;;19.20;77.00;;;;;;5043980;28;19933;-75
2022/09/10 12:25:03;;;;;;;;;;;19.20;76.70;;;;;;5041570;28;19943;-75
2022/09/10 12:27:43;;;;;;;;;;;19.20;75.90;;;;;;5039732;28;20471;-76
2022/09/10 12:30:28;;;;;;;;;;;19.20;75.60;;;;;;5042405;28;19929;-75
2022/09/10 12:32:56;;;;;;;;;;;19.20;75.80;;;;;;5043893;28;19928;-76
2022/09/10 12:35:44;;;;;;;;;;;19.30;76.20;;;;;;5042607;28;19936;-76
2022/09/10 12:38:29;;;;;;;;;;;19.30;76.70;;;;;;5048081;28;20404;-75
2022/09/10 12:40:57;;;;;;;;;;;19.30;75.40;;;;;;5040629;28;19936;-75
2022/09/10 12:43:39;;;;;;;;;;;19.30;75.60;;;;;;5045086;28;19929;-75
2022/09/10 12:46:16;;;;;;;;;;;19.30;75.20;;;;;;5045601;28;20383;-75
2022/09/10 12:48:44;;;;;;;;;;;19.30;75.60;;;;;;5043165;28;20051;-75
2022/09/10 12:51:18;;;;;;;;;;;19.30;75.10;;;;;;5046654;28;20420;-75
2022/09/10 12:53:53;;;;;;;;;;;19.30;75.10;;;;;;5042348;28;20388;-76
2022/09/10 12:56:40;;;;;;;;;;;19.40;75.90;;;;;;5036994;28;19951;-75
2022/09/10 12:59:17;;;;;;;;;;;19.30;75.00;;;;;;5042167;28;20294;-76
2022/09/10 13:01:46;;;;;;;;;;;19.30;75.00;;;;;;5040716;28;19932;-76
2022/09/10 13:04:23;;;;;;;;;;;19.40;75.30;;;;;;5042113;28;20410;-76
2022/09/10 13:06:50;;;;;;;;;;;19.30;75.20;;;;;;5043127;28;19933;-75
2022/09/10 13:09:20;;;;;;;;;;;19.40;74.60;;;;;;5040630;28;19932;-75
2022/09/10 13:11:49;;;;;;;;;;;19.40;74.40;;;;;;5039115;28;19929;-75
2022/09/10 13:14:19;;;;;;;;;;;19.40;74.70;;;;;;5042104;28;20056;-75
2022/09/10 13:16:46;;;;;;;;;;;19.40;74.80;;;;;;5041523;28;19932;-75
2022/09/10 13:19:31;;;;;;;;;;;19.40;75.00;;;;;;5041990;28;19933;-74
2022/09/10 13:21:58;;;;;;;;;;;19.40;74.00;;;;;;5042401;28;19929;-75
2022/09/10 13:24:37;;;;;;;;;;;19.40;73.70;;;;;;5040880;28;20775;-75
2022/09/10 13:27:04;;;;;;;;;;;19.50;74.30;;;;;;5041262;28;19932;-75
2022/09/10 13:29:38;;;;;;;;;;;19.50;73.90;;;;;;5045066;28;19936;-76
2022/09/10 13:32:08;;;;;;;;;;;19.60;73.90;;;;;;5039662;28;19929;-76
2022/09/10 13:34:52;;;;;;;;;;;19.70;74.10;;;;;;5041416;28;20028;-75
2022/09/10 13:37:24;;;;;;;;;;;19.70;74.80;;;;;;5040360;28;19931;-74
2022/09/10 13:40:05;;;;;;;;;;;19.70;74.40;;;;;;5038433;28;20320;-75
2022/09/10 13:42:41;;;;;;;;;;;19.80;74.30;;;;;;5039115;28;19929;-75
2022/09/10 13:45:15;;;;;;;;;;;19.80;75.80;;;;;;5041145;28;20052;-75
2022/09/10 13:47:46;;;;;;;;;;;19.80;77.50;;;;;;5046513;28;19933;-75
2022/09/10 13:50:14;;;;;;;;;;;19.80;77.80;;;;;;5034148;28;19932;-75
2022/09/10 13:52:43;;;;;;;;;;;19.70;79.00;;;;;;5042594;28;19975;-75
2022/09/10 13:55:14;;;;;;;;;;;19.80;79.90;;;;;;5041178;28;20026;-74
2022/09/10 13:57:43;;;;;;;;;;;19.70;79.60;;;;;;5041491;28;20629;-75
2022/09/10 14:00:19;;;;;;;;;;;19.70;79.40;;;;;;5040160;28;19936;-75
2022/09/10 14:02:47;;;;;;;;;;;19.60;80.60;;;;;;5042377;28;20098;-75
2022/09/10 14:05:32;;;;;;;;;;;19.60;80.60;;;;;;5039873;28;19939;-75
2022/09/10 14:08:01;;;;;;;;;;;19.50;80.20;;;;;;5038278;28;19935;-75
2022/09/10 14:10:28;;;;;;;;;;;19.50;79.90;;;;;;5039566;28;20392;-75
2022/09/10 14:12:55;;;;;;;;;;;19.50;80.20;;;;;;5045712;28;19933;-75
2022/09/10 14:15:28;;;;;;;;;;;19.40;80.20;;;;;;5041472;28;19968;-75
2022/09/10 14:17:57;;;;;;;;;;;19.40;80.80;;;;;;5040671;28;20024;-75
2022/09/10 14:20:24;;;;;;;;;;;19.40;81.00;;;;;;5043187;28;19933;-75
2022/09/10 14:22:52;;;;;;;;;;;19.30;81.00;;;;;;5043569;28;19936;-74
2022/09/10 14:25:30;;;;;;;;;;;19.40;81.10;;;;;;5044624;28;19936;-75
2022/09/10 14:28:11;;;;;;;;;;;19.30;81.10;;;;;;5044290;28;20757;-75